Time;durP1;ratioP1;P1;durP2;ratioP2;P2;SDS_P1;SDS_P2;PMS_P1;PMS_P2;Temp;Humidity;BMP_temperature;BMP_pressure;BME280_temperature;BME280_humidity;BME280_pressure;Samples;Min_cycle;Max_cycle;Signal;HPM_P1;HPM_P2
2023/07/04 14:02:02;;;;;;;4.22;1.58;;;24.50;97.80;;;;;;4932547;23;20239;-71
2023/07/04 14:04:29;;;;;;;4.20;1.52;;;24.50;97.80;;;;;;4958553;28;20212;-71
2023/07/04 14:06:56;;;;;;;5.93;1.83;;;24.60;98.00;;;;;;4965769;28;20204;-71
2023/07/04 14:09:23;;;;;;;3.50;1.35;;;24.90;97.90;;;;;;4949380;28;20225;-71
2023/07/04 14:11:50;;;;;;;3.88;1.65;;;25.00;98.50;;;;;;4951820;29;20295;-70
2023/07/04 14:14:16;;;;;;;5.20;1.40;;;25.10;97.90;;;;;;4941654;28;20200;-71
2023/07/04 14:16:44;;;;;;;5.82;1.70;;;25.20;98.30;;;;;;4952319;28;20287;-71
2023/07/04 14:19:12;;;;;;;6.38;2.00;;;24.80;96.90;;;;;;4947974;28;20231;-71
2023/07/04 14:21:39;;;;;;;4.40;1.85;;;24.50;97.30;;;;;;4951552;28;20231;-69
2023/07/04 14:24:06;;;;;;;2.20;1.27;;;24.20;97.00;;;;;;4949411;28;20278;-71
2023/07/04 14:26:33;;;;;;;6.32;1.90;;;23.90;96.90;;;;;;4945497;28;20208;-71
2023/07/04 14:29:00;;;;;;;5.30;1.80;;;23.50;97.40;;;;;;4951847;28;20362;-71
2023/07/04 14:31:27;;;;;;;4.47;1.63;;;23.40;97.30;;;;;;4949664;28;20215;-71
2023/07/04 14:33:55;;;;;;;3.65;1.30;;;23.10;97.60;;;;;;4949463;28;20737;-70
2023/07/04 14:36:23;;;;;;;4.78;1.90;;;23.10;97.60;;;;;;4948501;28;20299;-71
2023/07/04 14:38:50;;;;;;;3.13;1.15;;;23.10;97.90;;;;;;4949981;28;20668;-69
2023/07/04 14:41:17;;;;;;;1.85;1.30;;;23.20;97.80;;;;;;4948427;28;20205;-71
2023/07/04 14:43:44;;;;;;;2.95;1.73;;;23.00;98.40;;;;;;4954205;28;20291;-71
2023/07/04 14:46:11;;;;;;;4.47;1.70;;;23.20;98.10;;;;;;4944056;28;20216;-72
2023/07/04 14:48:39;;;;;;;2.85;1.30;;;23.40;97.80;;;;;;4952175;28;20240;-72
2023/07/04 14:51:07;;;;;;;3.38;1.70;;;24.00;97.90;;;;;;4944175;28;20212;-71
2023/07/04 14:53:37;;;;;;;3.90;1.65;;;24.50;96.90;;;;;;4953206;28;20208;-71
2023/07/04 14:56:06;;;;;;;3.28;1.42;;;24.70;96.60;;;;;;4951533;29;20686;-71
2023/07/04 14:58:33;;;;;;;6.60;2.40;;;24.90;97.10;;;;;;4953660;28;20228;-71
2023/07/04 15:01:02;;;;;;;4.25;1.50;;;25.10;96.40;;;;;;4953720;28;20220;-71
2023/07/04 15:03:30;;;;;;;5.28;1.90;;;25.20;96.40;;;;;;4953987;28;20567;-71
2023/07/04 15:06:01;;;;;;;6.13;1.70;;;25.20;96.80;;;;;;4954266;28;20212;-69
2023/07/04 15:08:28;;;;;;;4.35;1.50;;;25.00;97.10;;;;;;4954188;28;20244;-69
2023/07/04 15:10:56;;;;;;;5.95;1.80;;;25.00;97.10;;;;;;4954081;28;20214;-71
2023/07/04 15:13:23;;;;;;;2.50;1.38;;;25.00;96.80;;;;;;4953963;28;20208;-71
2023/07/04 15:15:55;;;;;;;6.15;1.77;;;25.10;97.00;;;;;;4953949;28;20684;-71
2023/07/04 15:18:22;;;;;;;3.88;2.13;;;25.10;97.20;;;;;;4953399;28;20568;-68
2023/07/04 15:20:49;;;;;;;3.75;1.83;;;24.90;97.60;;;;;;4953774;28;20208;-68
2023/07/04 15:23:17;;;;;;;2.63;1.40;;;24.90;97.30;;;;;;4953959;28;20212;-71
2023/07/04 15:25:49;;;;;;;5.50;1.35;;;24.90;97.80;;;;;;4954444;28;20208;-71
2023/07/04 15:28:18;;;;;;;4.50;1.20;;;24.90;97.80;;;;;;4953858;28;20695;-71
2023/07/04 15:30:45;;;;;;;3.67;1.40;;;25.00;97.60;;;;;;4954098;28;20566;-71
2023/07/04 15:33:11;;;;;;;4.78;1.80;;;25.00;98.30;;;;;;4953380;28;20212;-71
2023/07/04 15:35:38;;;;;;;6.07;1.58;;;24.80;98.40;;;;;;4937638;28;20553;-71
2023/07/04 15:38:05;;;;;;;4.03;1.83;;;24.70;98.70;;;;;;4950668;28;20292;-71
2023/07/04 15:40:32;;;;;;;3.03;1.27;;;24.60;98.60;;;;;;4942871;28;20223;-71
2023/07/04 15:42:58;;;;;;;4.07;1.40;;;24.40;98.90;;;;;;4953317;28;20204;-70
2023/07/04 15:45:27;;;;;;;2.50;1.27;;;24.30;99.00;;;;;;4953479;28;20695;-71
2023/07/04 15:47:53;;;;;;;6.10;1.48;;;24.10;99.20;;;;;;4942993;28;20232;-71
2023/07/04 15:50:20;;;;;;;5.35;1.85;;;24.10;98.70;;;;;;4947570;28;20208;-70
2023/07/04 15:52:47;;;;;;;4.93;1.65;;;24.00;99.20;;;;;;4937758;29;20209;-71
2023/07/04 15:55:14;;;;;;;4.13;2.03;;;24.00;99.50;;;;;;4953242;28;20651;-68
2023/07/04 15:57:41;;;;;;;4.50;1.83;;;23.80;99.50;;;;;;4953103;28;20219;-69
2023/07/04 16:00:10;;;;;;;4.40;1.95;;;23.70;99.90;;;;;;4941932;29;20709;-69
2023/07/04 16:02:40;;;;;;;5.50;1.55;;;23.80;99.40;;;;;;4952597;28;20215;-71
2023/07/04 16:05:07;;;;;;;4.32;1.60;;;23.70;99.60;;;;;;4945145;28;20209;-71
2023/07/04 16:07:34;;;;;;;4.97;1.42;;;23.60;99.90;;;;;;4944264;28;20212;-71
2023/07/04 16:10:01;;;;;;;4.82;1.77;;;23.50;99.80;;;;;;4957242;28;20232;-71
2023/07/04 16:12:28;;;;;;;5.60;2.90;;;23.50;99.90;;;;;;4956589;28;20658;-70
2023/07/04 16:14:54;;;;;;;6.53;1.63;;;23.60;99.70;;;;;;4955425;28;20211;-71
2023/07/04 16:17:21;;;;;;;4.72;1.60;;;23.10;99.90;;;;;;4952680;28;20215;-71
2023/07/04 16:19:49;;;;;;;2.80;1.17;;;23.00;99.90;;;;;;4954617;28;20227;-71
2023/07/04 16:22:16;;;;;;;4.18;1.58;;;22.90;99.90;;;;;;4954182;28;20212;-70
2023/07/04 16:24:43;;;;;;;3.97;1.20;;;22.90;99.90;;;;;;4953925;28;20690;-70
2023/07/04 16:27:10;;;;;;;6.93;1.48;;;23.00;99.90;;;;;;4956976;28;20214;-70
2023/07/04 16:29:37;;;;;;;3.33;1.50;;;23.10;99.90;;;;;;4956542;28;20239;-71
2023/07/04 16:32:05;;;;;;;2.67;1.35;;;23.00;99.90;;;;;;4956674;28;20295;-70
2023/07/04 16:34:32;;;;;;;4.82;2.17;;;22.90;99.90;;;;;;4956287;28;20636;-68
2023/07/04 16:37:00;;;;;;;8.38;1.65;;;23.00;99.90;;;;;;4956304;28;20204;-68
2023/07/04 16:39:27;;;;;;;3.72;1.60;;;23.00;99.90;;;;;;4956636;28;20733;-69
2023/07/04 16:41:54;;;;;;;6.20;1.40;;;23.10;99.90;;;;;;4956486;28;20210;-68
2023/07/04 16:44:21;;;;;;;7.57;1.70;;;23.10;99.90;;;;;;4956841;28;20208;-70
2023/07/04 16:46:47;;;;;;;4.55;1.58;;;23.20;99.90;;;;;;4956750;28;20208;-68
2023/07/04 16:49:14;;;;;;;3.38;1.63;;;23.10;99.90;;;;;;4956103;28;20235;-71
2023/07/04 16:51:41;;;;;;;7.15;2.08;;;23.10;99.90;;;;;;4946232;29;20200;-70
2023/07/04 16:54:09;;;;;;;6.10;2.00;;;23.10;99.90;;;;;;4956121;28;20212;-70
2023/07/04 16:56:36;;;;;;;5.57;1.80;;;23.20;99.90;;;;;;4956760;28;20208;-70
2023/07/04 16:59:03;;;;;;;9.40;1.73;;;23.00;99.90;;;;;;4956209;28;20227;-70
2023/07/04 17:01:30;;;;;;;3.67;1.48;;;23.00;99.90;;;;;;4956296;28;20242;-70
2023/07/04 17:03:56;;;;;;;3.13;1.58;;;23.00;99.90;;;;;;4955779;28;20689;-70
2023/07/04 17:06:23;;;;;;;4.95;1.52;;;22.90;99.90;;;;;;4956203;28;20208;-70
2023/07/04 17:08:50;;;;;;;6.35;1.70;;;22.70;99.90;;;;;;4955866;28;20240;-70
2023/07/04 17:11:18;;;;;;;4.05;1.33;;;22.80;99.90;;;;;;4955935;28;20215;-68
2023/07/04 17:13:45;;;;;;;2.90;1.23;;;22.80;99.90;;;;;;4956041;28;20234;-70
2023/07/04 17:16:12;;;;;;;4.68;1.70;;;22.90;99.90;;;;;;4956021;28;20226;-70
2023/07/04 17:18:39;;;;;;;7.10;1.85;;;22.90;99.90;;;;;;4955480;28;20240;-70
2023/07/04 17:21:07;;;;;;;5.28;1.55;;;22.70;99.90;;;;;;4955484;28;20240;-70
2023/07/04 17:23:34;;;;;;;3.00;1.65;;;22.40;99.90;;;;;;4956150;28;20212;-68
2023/07/04 17:26:01;;;;;;;6.90;1.92;;;22.20;99.90;;;;;;4956146;28;20228;-71
2023/07/04 17:28:30;;;;;;;4.70;1.60;;;22.10;99.90;;;;;;4955864;28;20266;-70
2023/07/04 17:30:57;;;;;;;6.30;1.63;;;22.00;99.90;;;;;;4955878;28;20702;-71
2023/07/04 17:33:24;;;;;;;4.13;1.63;;;22.20;99.90;;;;;;4955565;28;20204;-68
2023/07/04 17:35:52;;;;;;;6.60;1.92;;;22.20;99.90;;;;;;4955544;28;20232;-69
2023/07/04 17:38:21;;;;;;;5.80;1.77;;;22.20;99.90;;;;;;4955382;28;20718;-69
2023/07/04 17:40:47;;;;;;;3.40;1.60;;;22.10;99.90;;;;;;4955870;28;20216;-68
2023/07/04 17:43:14;;;;;;;7.45;1.90;;;22.10;99.90;;;;;;4955431;28;20254;-68
2023/07/04 17:45:43;;;;;;;4.43;1.90;;;22.00;99.90;;;;;;4955600;28;20214;-68
2023/07/04 17:48:10;;;;;;;4.15;1.52;;;22.00;99.90;;;;;;4955195;28;20315;-68
2023/07/04 17:50:37;;;;;;;5.50;1.30;;;22.20;99.90;;;;;;4955347;28;20222;-70
2023/07/04 17:53:04;;;;;;;6.13;1.88;;;22.20;99.90;;;;;;4955458;28;20204;-70
2023/07/04 17:55:32;;;;;;;5.07;1.67;;;22.20;99.90;;;;;;4955632;28;20216;-70
2023/07/04 17:57:59;;;;;;;4.68;1.85;;;22.20;99.90;;;;;;4954802;28;20224;-70
2023/07/04 18:00:26;;;;;;;4.88;1.42;;;22.00;99.90;;;;;;4955222;28;20294;-70
2023/07/04 18:02:55;;;;;;;5.60;1.73;;;21.90;99.90;;;;;;4954088;28;20587;-70
2023/07/04 18:05:22;;;;;;;2.97;1.70;;;21.90;99.90;;;;;;4948305;29;20299;-69
2023/07/04 18:07:49;;;;;;;4.75;1.50;;;21.90;99.90;;;;;;4947635;28;20272;-69
2023/07/04 18:10:16;;;;;;;5.45;1.65;;;22.00;99.90;;;;;;4954555;28;20666;-70
2023/07/04 18:12:43;;;;;;;3.85;1.67;;;22.00;99.90;;;;;;4955417;28;20286;-69
2023/07/04 18:15:10;;;;;;;5.35;1.80;;;21.90;99.90;;;;;;4950471;29;20211;-70
2023/07/04 18:17:37;;;;;;;3.25;1.60;;;21.70;99.90;;;;;;4952352;28;20204;-68
2023/07/04 18:20:06;;;;;;;5.03;1.77;;;21.70;99.90;;;;;;4954073;28;20681;-70
2023/07/04 18:22:33;;;;;;;5.45;2.10;;;21.60;99.90;;;;;;4942403;29;20214;-70
2023/07/04 18:25:00;;;;;;;4.47;1.83;;;21.70;99.90;;;;;;4951833;28;20247;-69
2023/07/04 18:27:27;;;;;;;3.90;2.30;;;21.70;99.90;;;;;;4948610;28;20204;-70
2023/07/04 18:29:55;;;;;;;4.93;1.63;;;21.80;99.90;;;;;;4949966;28;20243;-70
2023/07/04 18:32:22;;;;;;;5.25;1.90;;;21.80;99.90;;;;;;4947760;28;20204;-70
2023/07/04 18:34:53;;;;;;;6.47;1.63;;;21.80;99.90;;;;;;4954689;28;20208;-70
2023/07/04 18:37:23;;;;;;;6.32;1.98;;;21.80;99.90;;;;;;4945200;28;20299;-69
2023/07/04 18:39:50;;;;;;;3.88;1.83;;;21.80;99.90;;;;;;4944972;28;20243;-68
2023/07/04 18:42:16;;;;;;;4.20;1.60;;;21.70;99.90;;;;;;4947004;28;20208;-69
2023/07/04 18:44:43;;;;;;;4.80;1.85;;;21.60;99.90;;;;;;4952776;28;20291;-70
2023/07/04 18:47:10;;;;;;;4.25;1.67;;;21.60;99.90;;;;;;4949879;29;20208;-70
2023/07/04 18:49:37;;;;;;;5.43;2.10;;;21.60;99.90;;;;;;4950196;28;20334;-70
2023/07/04 18:52:04;;;;;;;5.03;1.77;;;21.60;99.90;;;;;;4935688;29;20204;-69
2023/07/04 18:54:33;;;;;;;3.05;1.60;;;21.50;99.90;;;;;;4947740;29;20216;-69
2023/07/04 18:56:59;;;;;;;4.57;1.98;;;21.50;99.90;;;;;;4944761;28;20212;-70
2023/07/04 18:59:27;;;;;;;4.03;2.08;;;21.50;99.90;;;;;;4948157;28;20315;-69
2023/07/04 19:01:54;;;;;;;8.27;2.00;;;21.50;99.90;;;;;;4944495;29;20583;-69
2023/07/04 19:04:21;;;;;;;3.55;1.92;;;21.40;99.90;;;;;;4947929;28;20204;-69
2023/07/04 19:06:48;;;;;;;3.40;2.08;;;21.30;99.90;;;;;;4949887;28;20212;-69
2023/07/04 19:09:15;;;;;;;4.95;1.98;;;21.30;99.90;;;;;;4947293;28;20239;-69
2023/07/04 19:11:44;;;;;;;3.30;1.90;;;21.30;99.90;;;;;;4948255;28;20244;-70
2023/07/04 19:14:12;;;;;;;3.60;1.95;;;21.10;99.90;;;;;;4948052;28;20211;-68
2023/07/04 19:16:45;;;;;;;3.50;2.10;;;21.10;99.90;;;;;;4947214;28;20220;-68
2023/07/04 19:19:16;;;;;;;3.13;1.80;;;20.90;99.90;;;;;;4947492;28;20239;-68
2023/07/04 19:21:43;;;;;;;4.30;2.00;;;20.70;99.90;;;;;;4952578;28;20691;-68
2023/07/04 19:24:10;;;;;;;5.10;1.73;;;20.70;99.90;;;;;;4937678;29;20217;-68
2023/07/04 19:26:37;;;;;;;4.03;1.60;;;20.70;99.90;;;;;;4946495;29;20208;-68
2023/07/04 19:29:05;;;;;;;3.95;1.90;;;20.70;99.90;;;;;;4936860;28;20311;-68
2023/07/04 19:31:32;;;;;;;6.15;1.77;;;20.70;99.90;;;;;;4946904;29;20208;-68
2023/07/04 19:33:59;;;;;;;4.72;2.05;;;20.60;99.90;;;;;;4948510;28;20212;-68
2023/07/04 19:36:26;;;;;;;3.95;1.90;;;20.50;99.90;;;;;;4948722;28;20578;-68
2023/07/04 19:38:53;;;;;;;3.45;1.80;;;20.50;99.90;;;;;;4936281;28;20239;-68
2023/07/04 19:41:19;;;;;;;4.95;2.00;;;20.40;99.90;;;;;;4949915;29;20634;-68
2023/07/04 19:43:46;;;;;;;3.25;1.63;;;20.30;99.90;;;;;;4948043;29;20651;-69
2023/07/04 19:46:15;;;;;;;6.47;1.88;;;20.30;99.90;;;;;;4951594;28;20232;-69
2023/07/04 19:48:42;;;;;;;5.00;2.00;;;20.20;99.90;;;;;;4950393;28;20235;-70
2023/07/04 19:51:11;;;;;;;3.08;1.90;;;20.00;99.90;;;;;;4950504;28;20211;-69
2023/07/04 19:53:40;;;;;;;4.00;1.70;;;19.90;99.90;;;;;;4957744;28;20666;-69
2023/07/04 19:56:08;;;;;;;3.65;2.05;;;19.90;99.90;;;;;;4950873;28;20211;-69
2023/07/04 19:58:36;;;;;;;4.40;1.83;;;19.80;99.90;;;;;;4950223;28;20253;-69
2023/07/04 20:01:05;;;;;;;4.20;1.80;;;19.80;99.90;;;;;;4951862;28;20212;-68
2023/07/04 20:03:35;;;;;;;4.22;1.80;;;19.90;99.90;;;;;;4956503;28;20663;-69
2023/07/04 20:06:02;;;;;;;3.22;1.92;;;19.80;99.90;;;;;;4941665;29;20231;-68
2023/07/04 20:08:29;;;;;;;4.82;2.45;;;19.80;99.90;;;;;;4947164;28;20243;-69
2023/07/04 20:10:57;;;;;;;4.85;1.77;;;19.70;99.90;;;;;;4948244;28;20330;-69
2023/07/04 20:13:24;;;;;;;5.13;2.28;;;19.50;99.90;;;;;;4955177;28;20204;-69
2023/07/04 20:15:51;;;;;;;5.72;1.98;;;19.50;99.90;;;;;;4953928;29;20294;-68
2023/07/04 20:18:18;;;;;;;4.15;1.90;;;19.60;99.90;;;;;;4952647;28;20707;-69
2023/07/04 20:20:47;;;;;;;6.85;2.17;;;19.60;99.90;;;;;;4944145;29;20655;-69
2023/07/04 20:23:14;;;;;;;5.40;2.20;;;19.50;99.90;;;;;;4950760;28;20222;-69
2023/07/04 20:25:41;;;;;;;3.75;1.90;;;19.50;99.90;;;;;;4956499;28;20204;-69
2023/07/04 20:28:08;;;;;;;4.35;2.17;;;19.50;99.90;;;;;;4950803;28;20703;-69
2023/07/04 20:30:37;;;;;;;3.17;1.98;;;19.40;99.90;;;;;;4956678;29;20286;-69
2023/07/04 20:33:04;;;;;;;7.47;2.33;;;19.50;99.90;;;;;;4950545;28;20223;-69
2023/07/04 20:35:31;;;;;;;3.75;2.05;;;19.60;99.90;;;;;;4944684;29;20259;-69
2023/07/04 20:38:01;;;;;;;5.18;2.20;;;19.60;99.90;;;;;;4946865;28;20231;-69
2023/07/04 20:40:29;;;;;;;4.53;2.42;;;19.50;99.90;;;;;;4956647;28;20199;-69
2023/07/04 20:42:57;;;;;;;4.22;1.90;;;19.40;99.90;;;;;;4947334;28;20209;-69
2023/07/04 20:45:24;;;;;;;3.45;1.95;;;19.40;99.90;;;;;;4956492;28;20647;-69
2023/07/04 20:47:53;;;;;;;4.60;2.28;;;19.30;99.90;;;;;;4954283;28;20222;-69
2023/07/04 20:50:22;;;;;;;4.85;1.90;;;19.30;99.90;;;;;;4955818;28;20243;-69
2023/07/04 20:52:49;;;;;;;4.05;2.00;;;19.30;99.90;;;;;;4952389;29;20627;-69
2023/07/04 20:55:19;;;;;;;6.03;2.25;;;19.20;99.90;;;;;;4953425;28;20568;-69
2023/07/04 20:57:46;;;;;;;3.22;2.00;;;19.20;99.90;;;;;;4949763;28;20744;-69
2023/07/04 21:00:15;;;;;;;5.43;2.10;;;19.20;99.90;;;;;;4952904;28;20684;-69
2023/07/04 21:02:43;;;;;;;3.95;2.15;;;19.30;99.90;;;;;;4953806;29;20266;-69
2023/07/04 21:05:11;;;;;;;6.85;2.25;;;19.30;99.90;;;;;;4952909;28;20819;-69
2023/07/04 21:07:38;;;;;;;3.60;2.00;;;19.40;99.90;;;;;;4954284;28;20274;-69
2023/07/04 21:10:07;;;;;;;3.83;1.98;;;19.40;99.90;;;;;;4949575;28;20228;-69
2023/07/04 21:12:36;;;;;;;4.90;2.20;;;19.30;99.90;;;;;;4953870;29;20261;-69
2023/07/04 21:15:03;;;;;;;2.90;1.63;;;19.40;99.90;;;;;;4949626;28;20204;-69
2023/07/04 21:17:30;;;;;;;7.50;2.22;;;19.50;99.90;;;;;;4955087;29;20204;-69
2023/07/04 21:19:57;;;;;;;5.00;1.70;;;19.50;99.90;;;;;;4948515;28;20309;-69
2023/07/04 21:22:24;;;;;;;4.05;1.80;;;19.50;99.90;;;;;;4955226;29;20200;-69
2023/07/04 21:24:51;;;;;;;5.88;2.17;;;19.50;99.90;;;;;;4946410;28;20292;-69
2023/07/04 21:27:17;;;;;;;5.18;1.88;;;19.60;99.90;;;;;;4955456;29;20201;-69
2023/07/04 21:29:51;;;;;;;4.47;1.85;;;19.60;99.90;;;;;;4952159;28;20244;-69
2023/07/04 21:32:18;;;;;;;4.50;1.67;;;19.50;99.90;;;;;;4942830;29;20285;-69
2023/07/04 21:34:45;;;;;;;2.95;1.60;;;19.50;99.90;;;;;;4950946;28;20563;-69
2023/07/04 21:37:12;;;;;;;2.08;1.45;;;19.50;99.90;;;;;;4955840;28;20697;-69
2023/07/04 21:39:41;;;;;;;2.42;1.70;;;19.50;99.90;;;;;;4955582;28;20231;-69
2023/07/04 21:42:08;;;;;;;2.85;1.25;;;19.50;99.90;;;;;;4955621;28;20204;-69
2023/07/04 21:44:35;;;;;;;2.40;1.35;;;19.50;99.90;;;;;;4955688;28;20651;-69
2023/07/04 21:47:04;;;;;;;3.20;1.40;;;19.40;99.90;;;;;;4955346;28;20210;-69
2023/07/04 21:49:31;;;;;;;3.10;1.40;;;18.90;99.90;;;;;;4955243;28;20694;-69
2023/07/04 21:51:57;;;;;;;2.73;1.30;;;18.50;99.90;;;;;;4954958;28;20208;-68
2023/07/04 21:54:24;;;;;;;3.93;1.50;;;18.20;99.90;;;;;;4955755;28;20303;-69
2023/07/04 21:56:51;;;;;;;2.33;1.27;;;17.90;99.90;;;;;;4955227;28;20578;-69
2023/07/04 21:59:18;;;;;;;3.27;1.43;;;17.90;99.90;;;;;;4955146;28;20228;-69
2023/07/04 22:01:45;;;;;;;3.27;1.50;;;17.90;99.90;;;;;;4955249;28;20266;-70
